Mount Vernon, Missouri
Current Conditions -  °F | °C
As of 5:55 PM on Sunday 23 Nov 2014 (Local Time) from KHFJ Reporting Station
Thunderstorm Thunderstorm  
Wind Chill: 12°   Ceiling: 600
Heat Index: 12°   Visibility: 7mi
Dew Point: 11°   Wind: 7mph
Humidity: 94%   Direction: 220°SW
Pressure: 29.3"   Gusts: NA
Location:  37.1°N, 93.82°W
Report Text: KHFJ 232355Z AUTO 22006KT 7SM -TSRA BKN006 BKN014 OVC055 12/11 A2930 RMK AO2 LTG DSNT ALQS P0052
Loading
Personal Weather Stations






























Interactive Weather Map New forecast layout! Learn more

10-Day Weather Forecast

Advertisements
Track Severe Weather on mobile